KBNW/BNW METAR and TAF weather

Enter ICAO airport designator
Station Type Date Time Source
KBNW METAR 2021/09/28 16:15 UTC NOAA

KBNW 281615Z AUTO 11008KT 10SM CLR 23/16 A2996 RMK AO2


Station Type Date Time Source
KBNW Decoded METAR 2021/09/28 16:15 UTC NOAA

Boone Municipal, IA, United States (KBNW) 42-03N 093-51W
Sep 28, 2021 - 12:15 PM EDT / 2021.09.28 1615 UTC
Wind: from the ESE (110 degrees) at 9 MPH (8 KT):0
Visibility: 10 mile(s):0
Sky conditions: clear
Temperature: 73 F (23 C)
Dew Point: 60 F (16 C)
Relative Humidity: 64%
Pressure (altimeter): 29.96 in. Hg (1014 hPa)
ob: KBNW 281615Z AUTO 11008KT 10SM CLR 23/16 A2996 RMK AO2
cycle: 16

Station Type Date Time Source
KBNW TAF UTC NOAA

Error!

Example: see airport list